createdAt,value
2022-12-25T00:00:20.911Z,10.50
2022-12-25T00:02:49.393Z,8.27
2022-12-25T00:05:19.513Z,9.60
2022-12-25T00:07:51.095Z,9.02
2022-12-25T00:10:19.432Z,8.10
2022-12-25T00:12:47.354Z,7.65
2022-12-25T00:15:15.360Z,8.40
2022-12-25T00:17:43.287Z,8.07
2022-12-25T00:20:11.744Z,8.30
2022-12-25T00:22:39.712Z,7.43
2022-12-25T00:25:07.949Z,8.40
2022-12-25T00:27:38.695Z,8.15
2022-12-25T00:30:08.939Z,7.75
2022-12-25T00:32:38.571Z,8.23
2022-12-25T00:35:07.175Z,8.80
2022-12-25T00:37:35.069Z,8.77
2022-12-25T00:40:02.937Z,8.45
2022-12-25T00:42:30.843Z,7.95
2022-12-25T00:44:58.755Z,8.20
2022-12-25T00:47:26.591Z,8.07
2022-12-25T00:49:54.580Z,9.10
2022-12-25T00:52:22.486Z,9.10
2022-12-25T00:54:50.468Z,8.70
2022-12-25T00:57:18.413Z,8.40
2022-12-25T00:59:46.334Z,7.78
2022-12-25T01:02:26.509Z,8.38
2022-12-25T01:04:57.160Z,10.55
2022-12-25T01:07:27.201Z,10.23
2022-12-25T01:10:13.953Z,8.70
2022-12-25T01:12:44.231Z,8.88
2022-12-25T01:15:15.655Z,8.88
2022-12-25T01:20:14.214Z,9.15
2022-12-25T01:22:42.227Z,9.32
2022-12-25T01:25:11.783Z,8.38
2022-12-25T01:27:42.016Z,8.98
2022-12-25T01:30:10.519Z,7.88
2022-12-25T01:32:38.467Z,8.30
2022-12-25T01:35:06.820Z,7.45
2022-12-25T01:37:34.711Z,8.18
2022-12-25T01:40:02.646Z,7.43
2022-12-25T01:42:30.588Z,7.25
2022-12-25T01:45:28.914Z,8.02
2022-12-25T01:47:56.893Z,7.00
2022-12-25T01:50:25.107Z,7.05
2022-12-25T01:52:53.981Z,7.35
2022-12-25T01:55:23.075Z,7.28
2022-12-25T01:57:52.481Z,6.97
2022-12-25T02:00:20.608Z,7.00
2022-12-25T02:02:49.588Z,6.90
2022-12-25T02:05:29.128Z,6.80
2022-12-25T02:07:59.265Z,6.80
2022-12-25T02:10:27.246Z,7.78
2022-12-25T02:12:55.199Z,7.05
2022-12-25T02:15:26.603Z,6.90
2022-12-25T02:20:59.097Z,6.45
2022-12-25T02:24:04.911Z,7.32
2022-12-25T02:26:56.153Z,6.60
2022-12-25T02:29:46.003Z,7.28
2022-12-25T02:32:25.737Z,7.63
2022-12-25T02:35:06.572Z,6.43
2022-12-25T02:37:41.424Z,5.90
2022-12-25T02:40:25.871Z,7.93
2022-12-25T02:43:39.075Z,6.60
2022-12-25T02:46:31.562Z,6.80
2022-12-25T02:49:28.178Z,6.30
2022-12-25T02:52:24.802Z,6.28
2022-12-25T02:55:16.277Z,6.50
2022-12-25T02:58:07.892Z,6.55
2022-12-25T03:03:48.960Z,6.32
2022-12-25T03:06:42.803Z,6.40
2022-12-25T03:09:53.020Z,6.70
2022-12-25T03:12:54.398Z,7.30
2022-12-25T03:15:41.859Z,6.45
2022-12-25T03:18:14.906Z,7.05
2022-12-25T03:21:01.777Z,7.97
2022-12-25T03:23:52.403Z,6.25
2022-12-25T03:26:39.157Z,6.22
2022-12-25T03:29:07.380Z,7.05
2022-12-25T03:32:02.622Z,7.45
2022-12-25T03:35:16.369Z,7.93
2022-12-25T03:38:41.880Z,6.03
2022-12-25T03:41:39.620Z,7.38
2022-12-25T03:44:42.732Z,6.82
2022-12-25T03:47:36.275Z,6.35
2022-12-25T03:51:04.826Z,7.20
2022-12-25T03:54:05.499Z,7.95
2022-12-25T03:56:53.644Z,7.25
2022-12-25T03:59:42.913Z,6.43
2022-12-25T04:02:37.655Z,5.18
2022-12-25T04:05:28.866Z,5.57
2022-12-25T04:08:18.499Z,6.30
2022-12-25T04:11:04.975Z,6.60
2022-12-25T04:13:51.351Z,7.68
2022-12-25T04:16:38.183Z,6.93
2022-12-25T04:19:24.592Z,8.15
2022-12-25T04:22:11.199Z,5.68
2022-12-25T04:24:57.630Z,5.95
2022-12-25T04:27:45.226Z,5.88
2022-12-25T04:30:31.716Z,5.38
2022-12-25T04:33:18.781Z,6.10
2022-12-25T04:36:09.268Z,6.50
2022-12-25T04:38:38.620Z,6.10
2022-12-25T04:41:07.123Z,6.10
2022-12-25T04:43:35.238Z,6.82
2022-12-25T04:46:04.806Z,6.93
2022-12-25T04:48:36.096Z,5.70
2022-12-25T04:51:14.442Z,5.38
2022-12-25T04:53:42.799Z,7.20
2022-12-25T04:56:10.772Z,6.18
2022-12-25T04:58:38.997Z,5.30
2022-12-25T05:01:07.364Z,4.43
2022-12-25T05:03:36.095Z,6.07
2022-12-25T05:06:05.010Z,5.72
2022-12-25T05:08:34.161Z,6.30
2022-12-25T05:11:07.085Z,6.03
2022-12-25T05:13:35.409Z,5.25
2022-12-25T05:16:09.946Z,5.97
2022-12-25T05:18:37.977Z,4.13
2022-12-25T05:21:06.088Z,3.97
2022-12-25T05:23:34.113Z,4.68
2022-12-25T05:26:08.163Z,5.47
2022-12-25T05:28:36.898Z,4.68
2022-12-25T05:31:07.130Z,4.50
2022-12-25T05:33:35.418Z,4.20
2022-12-25T05:36:06.333Z,4.65
2022-12-25T05:38:37.556Z,4.10
2022-12-25T05:41:05.867Z,4.00
2022-12-25T05:43:34.065Z,6.43
2022-12-25T05:46:10.135Z,9.95
2022-12-25T05:48:39.025Z,4.90
2022-12-25T05:51:12.672Z,4.53
2022-12-25T05:53:42.197Z,5.10
2022-12-25T05:56:11.124Z,3.95
2022-12-25T05:58:40.963Z,4.32
2022-12-25T06:01:21.121Z,5.13
2022-12-25T06:03:49.199Z,4.45
2022-12-25T06:06:17.124Z,3.70
2022-12-25T06:08:45.328Z,4.28
2022-12-25T06:11:15.298Z,3.95
2022-12-25T06:13:44.003Z,6.25
2022-12-25T06:16:13.227Z,4.50
2022-12-25T06:18:44.442Z,5.40
2022-12-25T06:21:14.771Z,4.80
2022-12-25T06:23:43.222Z,4.18
2022-12-25T06:26:14.166Z,3.97
2022-12-25T06:28:45.441Z,4.40
2022-12-25T06:31:18.994Z,4.53
2022-12-25T06:33:47.718Z,5.30
2022-12-25T06:36:21.864Z,4.22
2022-12-25T06:38:49.946Z,5.50
2022-12-25T06:41:21.021Z,5.10
2022-12-25T06:43:50.911Z,4.80
2022-12-25T06:46:19.728Z,5.30
2022-12-25T06:48:50.492Z,5.57
2022-12-25T06:51:20.610Z,5.50
2022-12-25T06:53:50.268Z,6.10
2022-12-25T06:56:21.177Z,5.88
2022-12-25T06:58:57.552Z,6.28
2022-12-25T07:01:29.730Z,4.80
2022-12-25T07:04:00.516Z,7.55
2022-12-25T07:06:28.646Z,6.78
2022-12-25T07:08:56.632Z,5.55
2022-12-25T07:11:25.386Z,6.88
2022-12-25T07:13:53.378Z,7.20
2022-12-25T07:16:21.469Z,7.65
2022-12-25T07:18:49.448Z,6.63
2022-12-25T07:21:22.298Z,6.72
2022-12-25T07:23:54.472Z,7.93
2022-12-25T07:26:22.418Z,8.48
2022-12-25T07:28:53.354Z,8.00
2022-12-25T07:31:21.684Z,7.00
2022-12-25T07:33:49.614Z,7.78
2022-12-25T07:36:17.636Z,6.40
2022-12-25T07:38:49.038Z,7.95
2022-12-25T07:43:44.906Z,6.82
2022-12-25T07:46:12.846Z,6.10
2022-12-25T07:48:40.750Z,6.00
2022-12-25T07:51:13.397Z,7.45
2022-12-25T07:53:41.709Z,6.68
2022-12-25T07:56:16.539Z,6.90
2022-12-25T07:58:45.331Z,6.70
2022-12-25T08:01:25.373Z,7.50
2022-12-25T08:04:02.075Z,7.05
2022-12-25T08:06:35.586Z,8.68
2022-12-25T08:09:14.467Z,6.35
2022-12-25T08:11:48.005Z,6.45
2022-12-25T08:14:16.485Z,5.25
2022-12-25T08:16:44.621Z,4.90
2022-12-25T08:19:12.716Z,5.10
2022-12-25T08:21:40.644Z,4.65
2022-12-25T08:24:08.748Z,4.60
2022-12-25T08:26:36.635Z,4.25
2022-12-25T08:29:04.695Z,4.57
2022-12-25T08:31:34.511Z,4.22
2022-12-25T08:34:04.508Z,3.92
2022-12-25T08:36:32.451Z,4.82
2022-12-25T08:39:03.371Z,4.10
2022-12-25T08:41:32.305Z,4.05
2022-12-25T08:44:00.771Z,4.47
2022-12-25T08:46:28.925Z,4.22
2022-12-25T08:48:57.945Z,4.43
2022-12-25T08:51:27.354Z,4.18
2022-12-25T08:54:01.012Z,4.35
2022-12-25T08:56:29.143Z,3.67
2022-12-25T08:58:57.063Z,16.23
2022-12-25T09:01:25.070Z,10.13
2022-12-25T09:03:53.142Z,4.60
2022-12-25T09:06:21.242Z,4.20
2022-12-25T09:08:50.077Z,4.30
2022-12-25T09:11:20.055Z,4.30
2022-12-25T09:13:48.855Z,4.53
2022-12-25T09:16:21.431Z,4.30
2022-12-25T09:18:50.229Z,3.75
2022-12-25T09:21:20.634Z,3.85
2022-12-25T09:23:48.948Z,4.23
2022-12-25T09:26:21.119Z,4.63
2022-12-25T09:28:52.384Z,5.22
2022-12-25T09:31:22.375Z,4.38
2022-12-25T09:33:52.170Z,4.43
2022-12-25T09:36:22.378Z,4.90
2022-12-25T09:38:50.527Z,5.07
2022-12-25T09:41:35.630Z,4.72
2022-12-25T09:44:06.804Z,4.75
2022-12-25T09:47:03.948Z,4.20
2022-12-25T09:49:47.882Z,3.08
2022-12-25T09:52:21.106Z,2.90
2022-12-25T09:55:11.530Z,3.13
2022-12-25T09:57:42.773Z,3.05
2022-12-25T10:00:22.233Z,3.10
2022-12-25T10:03:14.485Z,2.70
2022-12-25T10:06:05.557Z,3.70
2022-12-25T10:08:51.508Z,3.38
2022-12-25T10:11:46.783Z,2.53
2022-12-25T10:14:45.994Z,2.70
2022-12-25T10:17:44.303Z,3.08
2022-12-25T10:20:15.327Z,2.78
2022-12-25T10:22:51.267Z,2.90
2022-12-25T10:25:22.467Z,2.30
2022-12-25T10:32:11.722Z,2.20
2022-12-25T10:34:42.764Z,2.42
2022-12-25T10:37:13.113Z,2.10
2022-12-25T10:39:46.356Z,1.80
2022-12-25T10:42:37.015Z,1.77
2022-12-25T10:45:10.442Z,1.75
2022-12-25T10:47:42.170Z,1.85
2022-12-25T10:50:19.764Z,2.38
2022-12-25T10:53:14.453Z,1.70
2022-12-25T10:55:42.365Z,1.63
2022-12-25T10:58:22.726Z,2.10
2022-12-25T11:00:56.309Z,1.92
2022-12-25T11:03:26.914Z,1.60
2022-12-25T11:05:55.734Z,1.77
2022-12-25T11:08:25.955Z,2.20
2022-12-25T11:10:57.586Z,1.55
2022-12-25T11:13:28.987Z,2.25
2022-12-25T11:18:55.841Z,1.92
2022-12-25T11:21:26.961Z,2.42
2022-12-25T11:24:07.051Z,2.30
2022-12-25T11:26:52.822Z,2.05
2022-12-25T11:29:39.311Z,2.17
2022-12-25T11:32:26.271Z,1.98
2022-12-25T11:34:55.102Z,3.13
2022-12-25T11:37:35.047Z,3.25
2022-12-25T11:40:03.699Z,7.80
2022-12-25T11:42:48.511Z,5.22
2022-12-25T11:45:31.194Z,3.00
2022-12-25T11:48:20.360Z,1.90
2022-12-25T11:50:55.092Z,1.55
2022-12-25T11:53:32.964Z,2.15
2022-12-25T11:56:06.676Z,2.00
2022-12-25T11:58:40.610Z,2.17
2022-12-25T12:01:34.483Z,1.80
2022-12-25T12:04:04.243Z,1.73
2022-12-25T12:06:57.116Z,1.42
2022-12-25T12:09:47.011Z,1.40
2022-12-25T12:12:48.511Z,1.60
2022-12-25T12:15:36.739Z,1.65
2022-12-25T12:18:29.345Z,1.83
2022-12-25T12:21:04.785Z,1.73
2022-12-25T12:23:50.112Z,2.33
2022-12-25T12:26:27.900Z,1.83
2022-12-25T12:29:01.653Z,1.98
2022-12-25T12:31:45.586Z,1.52
2022-12-25T12:34:34.139Z,1.55
2022-12-25T12:37:24.783Z,1.55
2022-12-25T12:39:59.641Z,1.80
2022-12-25T12:42:37.100Z,1.52
2022-12-25T12:45:32.721Z,1.40
2022-12-25T12:48:00.756Z,1.50
2022-12-25T12:50:33.912Z,1.75
2022-12-25T12:53:21.788Z,1.88
2022-12-25T12:55:54.198Z,3.17
2022-12-25T12:58:51.780Z,2.80
2022-12-25T13:01:28.819Z,4.20
2022-12-25T13:04:02.877Z,2.00
2022-12-25T13:06:51.501Z,1.60
2022-12-25T13:09:41.696Z,1.60
2022-12-25T13:12:10.078Z,1.42
2022-12-25T13:14:39.013Z,1.67
2022-12-25T13:17:09.929Z,2.92
2022-12-25T13:19:38.781Z,1.83
2022-12-25T13:22:08.271Z,1.60
2022-12-25T13:24:38.065Z,1.60
2022-12-25T13:27:27.272Z,1.58
2022-12-25T13:29:55.275Z,1.40
2022-12-25T13:35:16.765Z,1.75
2022-12-25T13:37:45.919Z,1.80
2022-12-25T13:40:32.055Z,1.27
2022-12-25T13:43:02.063Z,1.40
2022-12-25T13:45:31.725Z,1.40
2022-12-25T13:48:10.187Z,1.30
2022-12-25T13:50:38.431Z,1.50
2022-12-25T13:53:15.234Z,1.25
2022-12-25T13:55:45.221Z,1.38
2022-12-25T13:58:31.784Z,1.15
2022-12-25T14:01:02.253Z,1.52
2022-12-25T14:03:38.024Z,1.70
2022-12-25T14:06:17.245Z,1.27
2022-12-25T14:08:45.835Z,1.77
2022-12-25T14:11:17.478Z,1.50
2022-12-25T14:13:48.027Z,1.40
2022-12-25T14:16:20.434Z,1.40
2022-12-25T14:19:03.664Z,1.52
2022-12-25T14:21:41.990Z,1.60
2022-12-25T14:24:15.200Z,2.00
2022-12-25T14:26:44.113Z,2.10
2022-12-25T14:29:18.562Z,1.83
2022-12-25T14:31:48.878Z,1.90
2022-12-25T14:34:25.390Z,1.77
2022-12-25T14:36:54.426Z,1.75
2022-12-25T14:39:38.461Z,1.70
2022-12-25T14:42:33.446Z,1.55
2022-12-25T14:45:07.971Z,1.77
2022-12-25T14:47:52.019Z,2.10
2022-12-25T14:50:31.711Z,1.95
2022-12-25T14:53:00.964Z,2.20
2022-12-25T14:55:31.309Z,1.70
2022-12-25T14:58:08.819Z,2.00
2022-12-25T15:00:39.857Z,2.20
2022-12-25T15:03:28.583Z,2.55
2022-12-25T15:06:21.141Z,2.03
2022-12-25T15:09:03.822Z,1.85
2022-12-25T15:11:31.825Z,1.70
2022-12-25T15:14:00.449Z,2.47
2022-12-25T15:16:35.555Z,2.10
2022-12-25T15:19:03.702Z,2.17
2022-12-25T15:21:35.190Z,2.13
2022-12-25T15:24:06.480Z,2.10
2022-12-25T15:29:07.285Z,2.17
2022-12-25T15:31:37.566Z,2.10
2022-12-25T15:34:22.434Z,2.13
2022-12-25T15:36:50.674Z,6.50
2022-12-25T15:39:18.534Z,2.00
2022-12-25T15:42:05.084Z,2.75
2022-12-25T15:44:33.043Z,2.25
2022-12-25T15:47:00.956Z,2.70
2022-12-25T15:49:28.927Z,2.05
2022-12-25T15:51:56.857Z,2.72
2022-12-25T15:54:24.762Z,2.50
2022-12-25T15:56:56.812Z,2.50
2022-12-25T15:59:24.931Z,2.10
2022-12-25T16:01:55.562Z,1.90
2022-12-25T16:04:25.018Z,2.45
2022-12-25T16:06:59.471Z,2.25
2022-12-25T16:09:28.671Z,2.45
2022-12-25T16:11:56.583Z,2.13
2022-12-25T16:14:24.487Z,3.00
2022-12-25T16:16:52.394Z,2.70
2022-12-25T16:19:20.317Z,2.17
2022-12-25T16:21:48.311Z,2.70
2022-12-25T16:24:16.925Z,2.50
2022-12-25T16:26:44.851Z,2.58
2022-12-25T16:29:12.732Z,2.67
2022-12-25T16:31:41.158Z,2.58
2022-12-25T16:34:10.564Z,3.60
2022-12-25T16:36:38.548Z,3.28
2022-12-25T16:39:06.646Z,3.13
2022-12-25T16:41:34.634Z,3.00
2022-12-25T16:44:11.117Z,3.50
2022-12-25T16:46:41.084Z,3.25
2022-12-25T16:49:09.745Z,3.33
2022-12-25T16:51:37.623Z,3.47
2022-12-25T16:54:05.674Z,3.00
2022-12-25T16:56:33.697Z,2.95
2022-12-25T16:59:02.087Z,2.80
2022-12-25T17:01:30.264Z,2.75
2022-12-25T17:04:02.546Z,3.22
2022-12-25T17:06:30.737Z,3.03
2022-12-25T17:09:00.611Z,3.30
2022-12-25T17:11:30.868Z,4.15
2022-12-25T17:14:00.939Z,4.38
2022-12-25T17:16:31.318Z,4.00
2022-12-25T17:19:11.968Z,4.22
2022-12-25T17:21:39.972Z,4.70
2022-12-25T17:24:11.142Z,4.07
2022-12-25T17:26:42.685Z,3.72
2022-12-25T17:29:14.690Z,3.75
2022-12-25T17:31:46.693Z,3.72
2022-12-25T17:34:16.002Z,4.50
2022-12-25T17:36:43.947Z,3.90
2022-12-25T17:39:12.153Z,5.35
2022-12-25T17:41:40.268Z,4.35
2022-12-25T17:44:08.211Z,4.00
2022-12-25T17:46:36.252Z,4.53
2022-12-25T17:49:04.339Z,4.65
2022-12-25T17:51:32.841Z,4.53
2022-12-25T17:54:04.145Z,4.05
2022-12-25T17:56:32.812Z,5.95
2022-12-25T17:59:04.589Z,5.05
2022-12-25T18:01:32.620Z,4.18
2022-12-25T18:04:01.711Z,4.10
2022-12-25T18:06:30.670Z,3.78
2022-12-25T18:08:59.424Z,3.63
2022-12-25T18:11:30.335Z,3.97
2022-12-25T18:13:59.329Z,4.03
2022-12-25T18:16:27.536Z,3.92
2022-12-25T18:18:55.501Z,4.60
2022-12-25T18:21:24.349Z,4.20
2022-12-25T18:23:53.037Z,4.43
2022-12-25T18:26:21.702Z,4.85
2022-12-25T18:28:50.793Z,4.53
2022-12-25T18:31:22.115Z,5.05
2022-12-25T18:33:53.107Z,5.65
2022-12-25T18:36:26.061Z,6.40
2022-12-25T18:38:55.723Z,7.15
2022-12-25T18:41:23.943Z,5.35
2022-12-25T18:43:55.556Z,5.32
2022-12-25T18:46:28.144Z,5.97
2022-12-25T18:48:57.837Z,6.35
2022-12-25T18:51:31.309Z,6.65
2022-12-25T18:54:04.620Z,5.57
2022-12-25T18:56:32.615Z,6.50
2022-12-25T18:59:01.802Z,5.60
2022-12-25T19:01:30.055Z,5.90
2022-12-25T19:04:04.381Z,6.18
2022-12-25T19:06:34.299Z,4.35
2022-12-25T19:09:09.649Z,4.70
2022-12-25T19:11:46.193Z,6.30
2022-12-25T19:14:15.546Z,6.72
2022-12-25T19:16:43.584Z,5.40
2022-12-25T19:19:11.643Z,7.32
2022-12-25T19:21:39.609Z,5.43
2022-12-25T19:24:10.533Z,6.20
2022-12-25T19:26:38.780Z,9.15
2022-12-25T19:29:09.490Z,8.00
2022-12-25T19:31:39.856Z,7.15
2022-12-25T19:34:08.108Z,6.60
2022-12-25T19:36:36.075Z,6.40
2022-12-25T19:39:04.794Z,7.05
2022-12-25T19:41:33.490Z,9.45
2022-12-25T19:44:01.773Z,9.35
2022-12-25T19:46:33.788Z,8.95
2022-12-25T19:49:05.259Z,8.55
2022-12-25T19:54:03.826Z,8.30
2022-12-25T19:56:32.410Z,8.70
2022-12-25T19:59:01.097Z,8.93
2022-12-25T20:01:30.432Z,9.05
2022-12-25T20:03:58.825Z,8.07
2022-12-25T20:06:30.145Z,8.07
2022-12-25T20:09:01.436Z,7.78
2022-12-25T20:11:31.292Z,7.82
2022-12-25T20:13:59.921Z,6.90
2022-12-25T20:16:28.197Z,7.38
2022-12-25T20:18:57.581Z,7.13
2022-12-25T20:21:27.838Z,6.60
2022-12-25T20:23:56.117Z,6.30
2022-12-25T20:26:28.781Z,7.32
2022-12-25T20:31:35.763Z,7.25
2022-12-25T20:34:12.415Z,6.85
2022-12-25T20:36:40.734Z,6.90
2022-12-25T20:39:11.720Z,6.60
2022-12-25T20:41:40.948Z,6.15
2022-12-25T20:44:11.051Z,6.25
2022-12-25T20:46:39.154Z,7.18
2022-12-25T20:49:07.020Z,6.10
2022-12-25T20:51:35.563Z,7.07
2022-12-25T20:54:10.693Z,6.53
2022-12-25T20:56:38.939Z,6.45
2022-12-25T20:59:06.880Z,5.68
2022-12-25T21:01:34.903Z,5.88
2022-12-25T21:04:03.032Z,5.75
2022-12-25T21:06:31.020Z,6.50
2022-12-25T21:08:59.068Z,7.78
2022-12-25T21:11:27.647Z,6.93
2022-12-25T21:13:55.581Z,6.88
2022-12-25T21:16:24.078Z,7.78
2022-12-25T21:18:54.275Z,7.68
2022-12-25T21:21:22.881Z,8.23
2022-12-25T21:23:51.308Z,7.72
2022-12-25T21:26:28.182Z,7.13
2022-12-25T21:28:58.480Z,7.43
2022-12-25T21:31:27.193Z,7.25
2022-12-25T21:33:56.362Z,6.78
2022-12-25T21:36:33.012Z,7.38
2022-12-25T21:39:11.181Z,6.65
2022-12-25T21:41:40.239Z,7.93
2022-12-25T21:44:08.940Z,8.07
2022-12-25T21:46:36.928Z,8.02
2022-12-25T21:49:04.996Z,7.00
2022-12-25T21:51:53.571Z,7.07
2022-12-25T21:54:23.237Z,7.40
2022-12-25T21:56:51.745Z,8.00
2022-12-25T21:59:22.559Z,6.25
2022-12-25T22:01:52.209Z,5.82
2022-12-25T22:04:22.694Z,6.93
2022-12-25T22:07:09.626Z,7.78
2022-12-25T22:09:41.248Z,6.40
2022-12-25T22:12:33.797Z,7.90
2022-12-25T22:15:07.469Z,6.68
2022-12-25T22:17:59.061Z,6.05
2022-12-25T22:20:31.788Z,7.13
2022-12-25T22:23:02.068Z,5.82
2022-12-25T22:25:30.076Z,5.75
2022-12-25T22:28:01.872Z,6.03
2022-12-25T22:30:33.226Z,5.72
2022-12-25T22:33:03.900Z,5.28
2022-12-25T22:35:31.792Z,6.38
2022-12-25T22:37:59.893Z,5.85
2022-12-25T22:40:27.944Z,6.15
2022-12-25T22:42:57.276Z,6.22
2022-12-25T22:45:25.690Z,6.18
2022-12-25T22:47:53.643Z,6.00
2022-12-25T22:50:21.844Z,6.40
2022-12-25T22:52:49.798Z,7.60
2022-12-25T22:55:20.232Z,8.57
2022-12-25T22:57:48.443Z,6.50
2022-12-25T23:00:16.488Z,8.23
2022-12-25T23:02:44.610Z,8.65
2022-12-25T23:05:12.623Z,8.52
2022-12-25T23:07:41.428Z,7.60
2022-12-25T23:10:10.420Z,10.10
2022-12-25T23:12:56.841Z,8.60
2022-12-25T23:15:24.822Z,8.20
2022-12-25T23:18:16.194Z,7.72
2022-12-25T23:21:03.001Z,7.75
2022-12-25T23:23:49.348Z,7.88
2022-12-25T23:26:18.974Z,7.80
2022-12-25T23:29:05.485Z,7.50
2022-12-25T23:31:40.836Z,9.02
2022-12-25T23:34:12.074Z,9.60
2022-12-25T23:36:39.993Z,8.50
2022-12-25T23:39:10.406Z,9.02
2022-12-25T23:41:39.952Z,9.18
2022-12-25T23:44:09.202Z,9.45
2022-12-25T23:46:37.296Z,9.40
2022-12-25T23:49:06.036Z,9.20
2022-12-25T23:51:35.685Z,8.65
2022-12-25T23:54:04.815Z,7.70
2022-12-25T23:56:34.235Z,9.30
2022-12-25T23:59:03.951Z,8.27
